Amber Beverly — VRHK5 — position and weather

sailwx.info

Track history (hours):
 
Tides and Currents Weather Stations Pressure Air Temp Water Temp Dewpoint Dewpoint Depression Visibility Wind Speed Wind Dir Waves Ship Positions

Amber Beverly

Last reported at 2016-Aug-21 20:33 UTC. Time now 2016-Aug-29 05:24 UTC.
Position N 31°23' E 032°20'.

Length 190 m; draft 12.8 m.

Type: Cargo ship. MMSI: 477317100.

Date/timePositionNaut miles runAvg speedWind from/ knotsBaromVisibWave heightAir tempDewpointWater temp
2016-Aug-21 20:33N 31°23' E 032°20'0 0.0
2016-Aug-21 19:33N 31°23' E 032°20'0 0.1
2016-Aug-21 18:33N 31°23' E 032°20'5 5.2
2016-Aug-21 17:33N 31°27' E 032°16'1312.6
2016-Aug-21 16:33N 31°36' E 032°06'1313.3
2016-Aug-21 15:33N 31°46' E 031°56'1413.9
2016-Aug-21 14:31N 31°57' E 031°44'1313.8
2016-Aug-21 13:33N 32°07' E 031°34'9313.2
2016-Aug-21 06:32N 33°15' E 030°19'1313.2
2016-Aug-21 05:32N 33°24' E 030°08'1413.4
2016-Aug-21 04:31N 33°35' E 029°57'3113.7
2016-Aug-21 02:13N 33°58' E 029°32'2213.4
2016-Aug-21 00:33N 34°15' E 029°14'1313.2
2016-Aug-20 23:33N 34°25' E 029°03'23813.2
2016-Aug-20 05:33N 37°26' E 025°54'24910.6
2016-Aug-19 06:03N 40°54' E 028°50'  
2016-Aug-16 20:33N 46°19' E 030°55'1212.0
2016-Aug-16 19:34N 46°31' E 030°56'  
2016-Aug-14 03:16N 46°35' E 031°01'5 7.7
2016-Aug-14 02:33N 46°31' E 030°57'1110.7
2016-Aug-14 01:32N 46°20' E 030°57'12411.1
2016-Aug-13 14:26N 44°46' E 032°52'1011.3
2016-Aug-13 13:34N 44°39' E 033°02'1111.3
2016-Aug-13 12:34N 44°31' E 033°12'1211.4
2016-Aug-13 11:31N 44°22' E 033°23'2611.7
2016-Aug-13 09:18N 44°18' E 033°59'1114.6
2016-Aug-13 08:34N 44°17' E 034°14'1515.2
2016-Aug-13 07:34N 44°17' E 034°35'1514.7
2016-Aug-13 06:33N 44°17' E 034°56'1514.7
2016-Aug-13 05:32N 44°21' E 035°16'6913.5
2016-Aug-13 00:23N 45°07' E 036°30'4 5.1
2016-Aug-12 23:33N 45°10' E 036°34'0 0.0
2016-Aug-12 22:33N 45°10' E 036°34'0 0.0
2016-Aug-12 21:33N 45°10' E 036°34'0 0.1
2016-Aug-12 20:33N 45°10' E 036°34'0 0.0
2016-Aug-12 19:33N 45°10' E 036°34'0 0.1
2016-Aug-12 18:33N 45°10' E 036°34'0 0.1
2016-Aug-12 17:33N 45°10' E 036°34'0 0.0
2016-Aug-12 16:33N 45°10' E 036°34'0 0.0
2016-Aug-12 15:33N 45°10' E 036°34'0 0.0
2016-Aug-12 14:33N 45°10' E 036°34'0 0.0
2016-Aug-12 13:33N 45°10' E 036°34'0 0.0
2016-Aug-12 12:33N 45°10' E 036°34'0 0.0
2016-Aug-12 11:33N 45°10' E 036°34'0 0.0
2016-Aug-12 10:33N 45°10' E 036°34'0 0.0
2016-Aug-12 09:33N 45°10' E 036°34'0 0.0
2016-Aug-12 08:33N 45°10' E 036°34'0 0.0
2016-Aug-12 07:33N 45°10' E 036°34'0 0.1
2016-Aug-12 06:33N 45°10' E 036°34'0 0.0
2016-Aug-12 05:33N 45°10' E 036°34'0 0.0
2016-Aug-12 04:33N 45°10' E 036°34'0 0.0
2016-Aug-12 03:33N 45°10' E 036°34'0 0.0
2016-Aug-12 02:33N 45°10' E 036°34'0 0.0
2016-Aug-12 01:33N 45°10' E 036°34'0 0.0
2016-Aug-12 00:33N 45°10' E 036°34'0 0.0
2016-Aug-11 23:33N 45°10' E 036°34'0 0.0
2016-Aug-11 22:19N 45°10' E 036°34'0 0.0
2016-Aug-11 21:33N 45°10' E 036°34'  
Track history (hours):
 
Tides and Currents Weather Stations Pressure Air Temp Water Temp Dewpoint Dewpoint Depression Visibility Wind Speed Wind Dir Waves Ship Positions

Amber Beverly

Last reported at 2016-Aug-21 20:33 UTC. Time now 2016-Aug-29 05:24 UTC.
Position N 31°23' E 032°20'.

Length 190 m; draft 12.8 m.

Type: Cargo ship. MMSI: 477317100.

Date/timePositionNaut miles runAvg speedWind from/ knotsBaromVisibWave heightAir tempDewpointWater temp
2016-Aug-21 20:33N 31°23' E 032°20'0 0.0
2016-Aug-21 19:33N 31°23' E 032°20'0 0.1
2016-Aug-21 18:33N 31°23' E 032°20'5 5.2
2016-Aug-21 17:33N 31°27' E 032°16'1312.6
2016-Aug-21 16:33N 31°36' E 032°06'1313.3
2016-Aug-21 15:33N 31°46' E 031°56'1413.9
2016-Aug-21 14:31N 31°57' E 031°44'1313.8
2016-Aug-21 13:33N 32°07' E 031°34'9313.2
2016-Aug-21 06:32N 33°15' E 030°19'1313.2
2016-Aug-21 05:32N 33°24' E 030°08'1413.4
2016-Aug-21 04:31N 33°35' E 029°57'3113.7
2016-Aug-21 02:13N 33°58' E 029°32'2213.4
2016-Aug-21 00:33N 34°15' E 029°14'1313.2
2016-Aug-20 23:33N 34°25' E 029°03'23813.2
2016-Aug-20 05:33N 37°26' E 025°54'24910.6
2016-Aug-19 06:03N 40°54' E 028°50'  
2016-Aug-16 20:33N 46°19' E 030°55'1212.0
2016-Aug-16 19:34N 46°31' E 030°56'  
2016-Aug-14 03:16N 46°35' E 031°01'5 7.7
2016-Aug-14 02:33N 46°31' E 030°57'1110.7
2016-Aug-14 01:32N 46°20' E 030°57'12411.1
2016-Aug-13 14:26N 44°46' E 032°52'1011.3
2016-Aug-13 13:34N 44°39' E 033°02'1111.3
2016-Aug-13 12:34N 44°31' E 033°12'1211.4
2016-Aug-13 11:31N 44°22' E 033°23'2611.7
2016-Aug-13 09:18N 44°18' E 033°59'1114.6
2016-Aug-13 08:34N 44°17' E 034°14'1515.2
2016-Aug-13 07:34N 44°17' E 034°35'1514.7
2016-Aug-13 06:33N 44°17' E 034°56'1514.7
2016-Aug-13 05:32N 44°21' E 035°16'6913.5
2016-Aug-13 00:23N 45°07' E 036°30'4 5.1
2016-Aug-12 23:33N 45°10' E 036°34'0 0.0
2016-Aug-12 22:33N 45°10' E 036°34'0 0.0
2016-Aug-12 21:33N 45°10' E 036°34'0 0.1
2016-Aug-12 20:33N 45°10' E 036°34'0 0.0
2016-Aug-12 19:33N 45°10' E 036°34'0 0.1
2016-Aug-12 18:33N 45°10' E 036°34'0 0.1
2016-Aug-12 17:33N 45°10' E 036°34'0 0.0
2016-Aug-12 16:33N 45°10' E 036°34'0 0.0
2016-Aug-12 15:33N 45°10' E 036°34'0 0.0
2016-Aug-12 14:33N 45°10' E 036°34'0 0.0
2016-Aug-12 13:33N 45°10' E 036°34'0 0.0
2016-Aug-12 12:33N 45°10' E 036°34'0 0.0
2016-Aug-12 11:33N 45°10' E 036°34'0 0.0
2016-Aug-12 10:33N 45°10' E 036°34'0 0.0
2016-Aug-12 09:33N 45°10' E 036°34'0 0.0
2016-Aug-12 08:33N 45°10' E 036°34'0 0.0
2016-Aug-12 07:33N 45°10' E 036°34'0 0.1
2016-Aug-12 06:33N 45°10' E 036°34'0 0.0
2016-Aug-12 05:33N 45°10' E 036°34'0 0.0
2016-Aug-12 04:33N 45°10' E 036°34'0 0.0
2016-Aug-12 03:33N 45°10' E 036°34'0 0.0
2016-Aug-12 02:33N 45°10' E 036°34'0 0.0
2016-Aug-12 01:33N 45°10' E 036°34'0 0.0
2016-Aug-12 00:33N 45°10' E 036°34'0 0.0
2016-Aug-11 23:33N 45°10' E 036°34'0 0.0
2016-Aug-11 22:19N 45°10' E 036°34'0 0.0
2016-Aug-11 21:33N 45°10' E 036°34'  

Dump ship's entire track history